createdAt,value
2022-10-11T00:03:14.092Z,11.08
2022-10-11T00:08:39.381Z,10.67
2022-10-11T00:13:31.790Z,10.49
2022-10-11T00:18:31.729Z,10.31
2022-10-11T00:23:31.636Z,10.25
2022-10-11T00:28:31.624Z,10.17
2022-10-11T00:33:31.481Z,10.17
2022-10-11T00:38:32.113Z,10.13
2022-10-11T00:43:31.384Z,10.04
2022-10-11T00:48:31.302Z,9.92
2022-10-11T00:53:31.235Z,9.77
2022-10-11T00:58:31.182Z,9.59
2022-10-11T01:03:31.086Z,9.43
2022-10-11T01:08:31.056Z,9.26
2022-10-11T01:13:31.023Z,9.16
2022-10-11T01:18:30.903Z,9.04
2022-10-11T01:23:30.837Z,8.92
2022-10-11T01:28:30.803Z,8.85
2022-10-11T01:33:30.713Z,8.79
2022-10-11T01:38:30.771Z,8.73
2022-10-11T01:43:30.558Z,8.67
2022-10-11T01:48:30.513Z,8.63
2022-10-11T01:53:30.431Z,8.52
2022-10-11T01:58:30.405Z,8.45
2022-10-11T02:03:30.284Z,8.46
2022-10-11T02:08:30.250Z,8.48
2022-10-11T02:13:30.172Z,8.48
2022-10-11T02:18:30.083Z,8.48
2022-10-11T02:23:30.042Z,8.38
2022-10-11T02:28:30.040Z,8.26
2022-10-11T02:33:29.874Z,8.15
2022-10-11T02:38:29.845Z,8.05
2022-10-11T02:43:29.772Z,8.08
2022-10-11T02:48:29.700Z,8.13
2022-10-11T02:53:29.614Z,8.08
2022-10-11T02:58:29.593Z,8.06
2022-10-11T03:03:29.479Z,7.97
2022-10-11T03:08:29.436Z,7.98
2022-10-11T03:13:29.355Z,7.97
2022-10-11T03:18:29.296Z,7.93
2022-10-11T03:23:29.220Z,7.90
2022-10-11T03:28:29.198Z,7.83
2022-10-11T03:33:29.118Z,7.85
2022-10-11T03:38:29.030Z,7.93
2022-10-11T03:43:28.954Z,8.08
2022-10-11T03:48:28.891Z,8.13
2022-10-11T03:53:28.821Z,8.15
2022-10-11T03:58:28.783Z,8.12
2022-10-11T04:03:28.689Z,8.18
2022-10-11T04:08:28.602Z,8.20
2022-10-11T04:13:28.571Z,8.15
2022-10-11T04:18:38.109Z,8.10
2022-10-11T04:23:30.479Z,8.13
2022-10-11T04:28:30.542Z,8.15
2022-10-11T04:33:30.474Z,8.24
2022-10-11T04:38:30.274Z,8.26
2022-10-11T04:43:30.293Z,8.31
2022-10-11T04:48:30.142Z,8.30
2022-10-11T04:53:30.094Z,8.18
2022-10-11T04:58:30.026Z,8.08
2022-10-11T05:03:29.956Z,8.09
2022-10-11T05:08:29.938Z,7.91
2022-10-11T05:13:29.824Z,7.76
2022-10-11T05:18:29.735Z,7.76
2022-10-11T05:23:29.735Z,7.77
2022-10-11T05:28:29.710Z,7.85
2022-10-11T05:33:29.544Z,7.83
2022-10-11T05:38:29.483Z,7.70
2022-10-11T05:43:29.418Z,7.69
2022-10-11T05:48:29.381Z,7.73
2022-10-11T05:53:29.277Z,7.98
2022-10-11T05:58:29.246Z,8.13
2022-10-11T06:03:29.165Z,8.27
2022-10-11T06:08:29.062Z,8.36
2022-10-11T06:13:29.022Z,8.42
2022-10-11T06:18:28.971Z,8.48
2022-10-11T06:23:28.885Z,8.64
2022-10-11T06:28:28.876Z,8.79
2022-10-11T06:33:28.764Z,8.95
2022-10-11T06:38:28.667Z,9.11
2022-10-11T06:43:28.646Z,9.23
2022-10-11T06:48:28.550Z,9.41
2022-10-11T06:53:28.485Z,9.55
2022-10-11T06:58:28.457Z,9.65
2022-10-11T07:03:28.330Z,9.79
2022-10-11T07:08:28.269Z,10.01
2022-10-11T07:13:28.209Z,10.30
2022-10-11T07:18:28.125Z,11.19
2022-10-11T07:23:28.091Z,11.60
2022-10-11T07:28:28.071Z,11.35
2022-10-11T07:33:27.927Z,11.41
2022-10-11T07:38:27.903Z,13.33
2022-10-11T07:43:27.813Z,14.23
2022-10-11T07:48:27.723Z,13.03
2022-10-11T07:53:27.693Z,12.15
2022-10-11T07:58:27.623Z,11.88
2022-10-11T08:03:27.561Z,12.29
2022-10-11T08:08:27.472Z,12.06
2022-10-11T08:13:27.436Z,12.27
2022-10-11T08:18:27.345Z,12.25
2022-10-11T08:23:27.242Z,13.41
2022-10-11T08:28:27.245Z,16.31
2022-10-11T08:33:27.134Z,15.29
2022-10-11T08:38:27.047Z,16.17
2022-10-11T08:43:26.997Z,16.39
2022-10-11T08:48:26.928Z,17.15
2022-10-11T08:53:26.839Z,16.26
2022-10-11T08:58:26.810Z,16.49
2022-10-11T09:03:26.709Z,17.85
2022-10-11T09:08:26.635Z,19.41
2022-10-11T09:13:26.589Z,20.02
2022-10-11T09:18:26.539Z,19.85
2022-10-11T09:23:26.477Z,20.95
2022-10-11T09:28:26.422Z,21.46
2022-10-11T09:33:26.329Z,21.61
2022-10-11T09:38:26.242Z,22.83
2022-10-11T09:43:26.176Z,22.76
2022-10-11T09:48:26.132Z,23.28
2022-10-11T09:53:26.041Z,22.94
2022-10-11T09:58:26.002Z,23.87
2022-10-11T10:03:25.931Z,24.53
2022-10-11T10:08:25.837Z,24.28
2022-10-11T10:13:25.799Z,24.68
2022-10-11T10:18:25.712Z,23.77
2022-10-11T10:23:25.640Z,24.33
2022-10-11T10:28:25.663Z,24.81
2022-10-11T10:33:25.560Z,25.14
2022-10-11T10:38:26.698Z,24.38
2022-10-11T10:43:25.556Z,23.71
2022-10-11T10:48:25.290Z,20.43
2022-10-11T10:53:25.260Z,20.25
2022-10-11T10:58:25.193Z,20.16
2022-10-11T11:03:25.109Z,18.88
2022-10-11T11:08:25.061Z,19.15
2022-10-11T11:13:25.042Z,18.66
2022-10-11T11:18:24.935Z,20.29
2022-10-11T11:23:24.867Z,21.30
2022-10-11T11:28:24.840Z,19.76
2022-10-11T11:33:24.721Z,22.93
2022-10-11T11:38:29.246Z,24.16
2022-10-11T11:43:25.589Z,24.11
2022-10-11T11:48:24.503Z,24.68
2022-10-11T11:53:24.461Z,23.98
2022-10-11T11:58:24.378Z,22.90
2022-10-11T12:03:24.285Z,23.05
2022-10-11T12:08:24.256Z,23.37
2022-10-11T12:13:27.248Z,23.69
2022-10-11T12:18:25.108Z,23.37
2022-10-11T12:23:24.054Z,22.76
2022-10-11T12:28:24.059Z,20.88
2022-10-11T12:33:23.923Z,19.45
2022-10-11T12:38:23.863Z,18.81
2022-10-11T12:43:23.781Z,18.31
2022-10-11T12:48:25.572Z,17.89
2022-10-11T12:53:23.645Z,17.83
2022-10-11T12:58:23.604Z,17.90
2022-10-11T13:03:26.158Z,17.86
2022-10-11T13:08:23.478Z,17.82
2022-10-11T13:13:23.392Z,18.00
2022-10-11T13:18:23.321Z,17.41
2022-10-11T13:23:23.218Z,17.39
2022-10-11T13:28:23.214Z,17.67
2022-10-11T13:33:23.106Z,18.18
2022-10-11T13:38:23.032Z,18.23
2022-10-11T13:43:22.974Z,18.11
2022-10-11T13:48:22.887Z,18.31
2022-10-11T13:53:22.820Z,18.13
2022-10-11T13:58:22.792Z,17.85
2022-10-11T14:03:22.674Z,17.71
2022-10-11T14:08:22.622Z,17.76
2022-10-11T14:13:22.557Z,17.51
2022-10-11T14:18:22.506Z,17.42
2022-10-11T14:23:22.422Z,17.16
2022-10-11T14:28:22.550Z,17.02
2022-10-11T14:33:22.309Z,16.94
2022-10-11T14:38:22.280Z,16.68
2022-10-11T14:43:22.144Z,16.61
2022-10-11T14:48:42.940Z,16.39
2022-10-11T14:53:23.013Z,16.38
2022-10-11T14:58:21.922Z,16.24
2022-10-11T15:03:21.878Z,16.15
2022-10-11T15:08:21.821Z,16.00
2022-10-11T15:13:21.762Z,15.95
2022-10-11T15:18:21.769Z,15.83
2022-10-11T15:23:21.609Z,15.77
2022-10-11T15:28:21.602Z,15.65
2022-10-11T15:33:21.473Z,15.43
2022-10-11T15:38:21.425Z,15.29
2022-10-11T15:43:24.755Z,15.11
2022-10-11T15:48:21.256Z,15.02
2022-10-11T15:53:21.202Z,14.85
2022-10-11T15:58:21.137Z,14.65
2022-10-11T16:03:21.062Z,14.60
2022-10-11T16:08:21.009Z,14.40
2022-10-11T16:13:20.932Z,14.30
2022-10-11T16:18:20.870Z,14.15
2022-10-11T16:23:20.809Z,13.90
2022-10-11T16:28:20.763Z,13.65
2022-10-11T16:33:20.662Z,13.46
2022-10-11T16:38:20.596Z,13.27
2022-10-11T16:43:20.499Z,13.15
2022-10-11T16:48:20.463Z,12.95
2022-10-11T16:53:20.388Z,12.80
2022-10-11T16:58:20.329Z,12.60
2022-10-11T17:03:20.251Z,12.39
2022-10-11T17:08:20.192Z,12.18
2022-10-11T17:13:20.124Z,12.07
2022-10-11T17:18:20.069Z,12.00
2022-10-11T17:23:19.972Z,11.90
2022-10-11T17:28:19.953Z,11.80
2022-10-11T17:33:19.878Z,11.75
2022-10-11T17:38:19.798Z,11.73
2022-10-11T17:43:19.752Z,11.70
2022-10-11T17:48:19.658Z,11.62
2022-10-11T17:53:19.613Z,11.59
2022-10-11T17:58:19.533Z,11.57
2022-10-11T18:03:19.470Z,11.48
2022-10-11T18:08:19.411Z,11.43
2022-10-11T18:13:19.301Z,11.40
2022-10-11T18:18:19.258Z,11.33
2022-10-11T18:23:19.184Z,11.33
2022-10-11T18:28:19.202Z,11.07
2022-10-11T18:33:19.058Z,10.72
2022-10-11T18:38:19.001Z,10.54
2022-10-11T18:43:18.953Z,10.31
2022-10-11T18:48:18.841Z,10.09
2022-10-11T18:53:18.854Z,9.97
2022-10-11T18:58:18.722Z,9.82
2022-10-11T19:03:18.637Z,9.73
2022-10-11T19:08:18.595Z,9.69
2022-10-11T19:13:18.538Z,9.51
2022-10-11T19:18:20.585Z,9.40
2022-10-11T19:23:18.363Z,9.23
2022-10-11T19:28:18.397Z,9.25
2022-10-11T19:33:18.270Z,9.21
2022-10-11T19:38:18.263Z,9.13
2022-10-11T19:43:18.140Z,9.10
2022-10-11T19:48:18.072Z,9.00
2022-10-11T19:53:17.952Z,8.99
2022-10-11T19:58:17.937Z,8.97
2022-10-11T20:03:17.834Z,8.94
2022-10-11T20:08:17.776Z,8.88
2022-10-11T20:13:17.697Z,8.84
2022-10-11T20:18:17.635Z,8.85
2022-10-11T20:23:18.199Z,8.85
2022-10-11T20:28:17.527Z,8.76
2022-10-11T20:33:17.421Z,8.67
2022-10-11T20:38:17.373Z,8.49
2022-10-11T20:43:17.324Z,8.33
2022-10-11T20:48:17.207Z,8.30
2022-10-11T20:53:17.138Z,8.27
2022-10-11T20:58:17.074Z,8.18
2022-10-11T21:03:17.029Z,8.03
2022-10-11T21:08:16.992Z,7.98
2022-10-11T21:13:16.883Z,8.00
2022-10-11T21:18:16.795Z,7.98
2022-10-11T21:23:16.754Z,8.03
2022-10-11T21:28:16.754Z,8.06
2022-10-11T21:33:16.595Z,7.94
2022-10-11T21:38:16.544Z,7.91
2022-10-11T21:43:16.504Z,7.76
2022-10-11T21:48:16.442Z,7.67
2022-10-11T21:53:16.348Z,7.61
2022-10-11T21:58:16.279Z,7.61
2022-10-11T22:03:16.227Z,7.56
2022-10-11T22:08:16.153Z,7.39
2022-10-11T22:13:16.088Z,7.36
2022-10-11T22:18:16.027Z,7.33
2022-10-11T22:23:15.954Z,7.38
2022-10-11T22:28:15.920Z,7.39
2022-10-11T22:33:15.818Z,7.31
2022-10-11T22:38:15.744Z,7.25
2022-10-11T22:43:15.676Z,7.17
2022-10-11T22:48:15.644Z,7.13
2022-10-11T22:53:15.554Z,6.99
2022-10-11T22:58:15.492Z,6.99
2022-10-11T23:03:15.436Z,7.00
2022-10-11T23:08:15.353Z,6.89
2022-10-11T23:13:15.257Z,6.87
2022-10-11T23:18:15.212Z,6.87
2022-10-11T23:23:15.145Z,6.81
2022-10-11T23:28:15.120Z,6.75
2022-10-11T23:33:15.010Z,6.63
2022-10-11T23:38:14.961Z,6.64
2022-10-11T23:43:14.876Z,6.56
2022-10-11T23:48:14.814Z,6.59
2022-10-11T23:53:14.735Z,6.57
2022-10-11T23:58:14.694Z,6.52
